createdAt,value
2023-02-16T00:02:22.276Z,84847.00
2023-02-16T00:05:26.965Z,84852.53
2023-02-16T00:08:29.432Z,84846.22
2023-02-16T00:11:53.105Z,84843.06
2023-02-16T00:14:55.522Z,84843.84
2023-02-16T00:18:03.045Z,84841.50
2023-02-16T00:21:05.976Z,84846.25
2023-02-16T00:24:08.862Z,84843.06
2023-02-16T00:27:18.511Z,84849.34
2023-02-16T00:30:22.701Z,84847.81
2023-02-16T00:33:25.439Z,84846.22
2023-02-16T00:36:28.211Z,84844.62
2023-02-16T00:39:30.717Z,84843.06
2023-02-16T00:42:35.753Z,84851.75
2023-02-16T00:45:38.098Z,84849.34
2023-02-16T00:48:40.712Z,84857.22
2023-02-16T00:51:43.930Z,84861.97
2023-02-16T00:54:46.901Z,84860.38
2023-02-16T00:57:53.792Z,84849.34
2023-02-16T01:01:08.290Z,84852.50
2023-02-16T01:04:18.576Z,84850.94
2023-02-16T01:07:40.589Z,84852.50
2023-02-16T01:11:02.066Z,84853.28
2023-02-16T01:14:06.693Z,84863.53
2023-02-16T01:17:11.195Z,84866.66
2023-02-16T01:20:22.463Z,84871.41
2023-02-16T01:23:25.059Z,84876.12
2023-02-16T01:26:29.480Z,84876.09
2023-02-16T01:29:31.969Z,84877.69
2023-02-16T01:32:35.708Z,84880.81
2023-02-16T01:35:38.686Z,84882.41
2023-02-16T01:38:41.312Z,84887.13
2023-02-16T01:42:08.584Z,84879.25
2023-02-16T01:45:20.590Z,84885.56
2023-02-16T01:48:27.831Z,84880.81
2023-02-16T01:51:59.960Z,84887.91
2023-02-16T01:55:19.054Z,84891.84
2023-02-16T01:58:33.033Z,84887.09
2023-02-16T02:01:42.654Z,84887.13
2023-02-16T02:05:26.055Z,84887.09
2023-02-16T02:08:49.185Z,84882.38
2023-02-16T02:11:59.774Z,84882.41
2023-02-16T02:15:02.528Z,84879.22
2023-02-16T02:18:05.555Z,84873.69
2023-02-16T02:21:42.337Z,84870.56
2023-02-16T02:25:05.816Z,84872.13
2023-02-16T02:28:31.588Z,84866.59
2023-02-16T02:31:43.825Z,84863.44
2023-02-16T02:34:53.486Z,84869.75
2023-02-16T02:38:09.893Z,84867.38
2023-02-16T02:41:23.801Z,84871.34
2023-02-16T02:44:28.995Z,84887.06
2023-02-16T02:47:40.299Z,84887.06
2023-02-16T02:51:30.918Z,84895.75
2023-02-16T02:54:57.559Z,84893.41
2023-02-16T02:58:18.834Z,84894.94
2023-02-16T03:01:24.270Z,84904.41
2023-02-16T03:04:30.777Z,84910.69
2023-02-16T03:07:46.807Z,84900.44
2023-02-16T03:11:16.523Z,84896.50
2023-02-16T03:14:37.933Z,84890.25
2023-02-16T03:17:59.858Z,84887.06
2023-02-16T03:21:22.926Z,84888.59
2023-02-16T03:24:48.876Z,84886.25
2023-02-16T03:28:11.269Z,84880.75
2023-02-16T03:31:21.623Z,84884.72
2023-02-16T03:34:25.684Z,84890.19
2023-02-16T03:37:28.142Z,84891.78
2023-02-16T03:40:35.046Z,84897.28
2023-02-16T03:43:37.715Z,84904.38
2023-02-16T03:46:40.789Z,84911.47
2023-02-16T03:49:43.290Z,84915.44
2023-02-16T03:52:46.225Z,84917.75
2023-02-16T03:55:48.801Z,84916.97
2023-02-16T03:58:51.560Z,84918.53
2023-02-16T04:01:54.069Z,84915.38
2023-02-16T04:04:57.112Z,84910.63
2023-02-16T04:07:59.684Z,84921.66
2023-02-16T04:11:22.354Z,84927.97
2023-02-16T04:14:24.803Z,84929.56
2023-02-16T04:17:27.598Z,84934.28
2023-02-16T04:20:31.950Z,84929.53
2023-02-16T04:23:34.803Z,84932.69
2023-02-16T04:26:37.425Z,84937.47
2023-02-16T04:29:40.372Z,84943.69
2023-02-16T04:32:42.958Z,84946.88
2023-02-16T04:35:45.670Z,84954.75
2023-02-16T04:38:48.017Z,84964.16
2023-02-16T04:41:50.766Z,84965.75
2023-02-16T04:44:53.470Z,84958.69
2023-02-16T04:47:56.378Z,84966.50
2023-02-16T04:50:58.794Z,84961.06
2023-02-16T04:54:01.497Z,84967.34
2023-02-16T04:57:04.022Z,84965.75
2023-02-16T05:00:08.740Z,84972.09
2023-02-16T05:03:11.214Z,84967.34
2023-02-16T05:06:14.440Z,84960.25
2023-02-16T05:09:16.996Z,84964.19
2023-02-16T05:12:38.403Z,84967.31
2023-02-16T05:15:40.917Z,84961.06
2023-02-16T05:18:43.800Z,84962.56
2023-02-16T05:21:46.320Z,84968.91
2023-02-16T05:24:49.422Z,84970.47
2023-02-16T05:27:52.017Z,84975.22
2023-02-16T05:30:54.974Z,84964.19
2023-02-16T05:33:57.374Z,84962.56
2023-02-16T05:37:00.156Z,84964.16
2023-02-16T05:40:02.831Z,84954.72
2023-02-16T05:43:05.486Z,84956.31
2023-02-16T05:46:09.138Z,84961.03
2023-02-16T05:49:13.942Z,84954.72
2023-02-16T05:52:16.899Z,84954.75
2023-02-16T05:55:19.881Z,84953.16
2023-02-16T05:58:23.196Z,84961.84
2023-02-16T06:01:26.954Z,84957.88
2023-02-16T06:04:29.691Z,84954.72
2023-02-16T06:07:32.300Z,84954.72
2023-02-16T06:10:35.198Z,84953.13
2023-02-16T06:13:37.647Z,84953.16
2023-02-16T06:16:42.364Z,84959.44
2023-02-16T06:19:44.810Z,84957.84
2023-02-16T06:22:47.763Z,84974.38
2023-02-16T06:25:51.884Z,84967.34
2023-02-16T06:28:55.552Z,84972.81
2023-02-16T06:31:58.378Z,84976.75
2023-02-16T06:35:01.213Z,84967.31
2023-02-16T06:38:03.770Z,84964.16
2023-02-16T06:41:07.395Z,84962.59
2023-02-16T06:44:16.636Z,84957.88
2023-02-16T06:47:19.767Z,84947.63
2023-02-16T06:50:22.756Z,84940.53
2023-02-16T06:53:25.766Z,84940.53
2023-02-16T06:56:28.870Z,84932.69
2023-02-16T06:59:31.573Z,84921.66
2023-02-16T07:02:35.735Z,84923.22
2023-02-16T07:05:38.702Z,84916.19
2023-02-16T07:08:41.230Z,84913.03
2023-02-16T07:11:44.019Z,84907.53
2023-02-16T07:14:46.597Z,84899.59
2023-02-16T07:17:49.471Z,84899.59
2023-02-16T07:20:52.238Z,84899.63
2023-02-16T07:23:55.048Z,84905.91
2023-02-16T07:26:57.424Z,84905.88
2023-02-16T07:30:00.377Z,84900.41
2023-02-16T07:33:03.085Z,84893.31
2023-02-16T07:36:07.233Z,84876.00
2023-02-16T07:39:09.734Z,84879.16
2023-02-16T07:42:12.530Z,84873.66
2023-02-16T07:45:18.997Z,84864.97
2023-02-16T07:48:21.739Z,84852.38
2023-02-16T07:51:26.580Z,84854.00
2023-02-16T07:54:31.898Z,84857.13
2023-02-16T07:57:34.487Z,84839.78
2023-02-16T08:00:37.501Z,84833.47
2023-02-16T08:03:42.666Z,84818.56
2023-02-16T08:06:47.140Z,84811.41
2023-02-16T08:09:50.058Z,84802.00
2023-02-16T08:12:52.539Z,84787.00
2023-02-16T08:15:55.361Z,84786.22
2023-02-16T08:19:00.083Z,84761.06
2023-02-16T08:22:04.702Z,84687.72
2023-02-16T08:25:07.959Z,84648.28
2023-02-16T08:28:15.103Z,84612.81
2023-02-16T08:31:20.497Z,84609.63
2023-02-16T08:34:26.320Z,84567.84
2023-02-16T08:37:28.857Z,84527.56
2023-02-16T08:40:32.593Z,84473.88
2023-02-16T08:43:35.978Z,84440.69
2023-02-16T08:46:42.777Z,84389.34
2023-02-16T08:49:45.885Z,84345.91
2023-02-16T08:52:49.017Z,84363.28
2023-02-16T08:55:55.723Z,84322.19
2023-02-16T08:59:02.291Z,84279.44
2023-02-16T09:02:06.360Z,84242.25
2023-02-16T09:05:10.234Z,84213.75
2023-02-16T09:08:13.018Z,84225.63
2023-02-16T09:11:16.493Z,84190.78
2023-02-16T09:14:19.398Z,84186.03
2023-02-16T09:17:22.498Z,84193.94
2023-02-16T09:20:25.207Z,84164.69
2023-02-16T09:23:29.035Z,84124.31
2023-02-16T09:26:34.440Z,84109.28
2023-02-16T09:29:38.864Z,84214.59
2023-02-16T09:32:42.661Z,84329.25
2023-02-16T09:35:46.135Z,84331.63
2023-02-16T09:38:49.189Z,84366.47
2023-02-16T09:42:17.107Z,84349.84
2023-02-16T09:45:22.764Z,84375.94
2023-02-16T09:48:44.918Z,84350.66
2023-02-16T09:51:52.535Z,84345.87
2023-02-16T09:55:05.677Z,84324.53
2023-02-16T09:58:21.870Z,84326.91
2023-02-16T10:01:31.996Z,84307.97
2023-02-16T10:04:47.986Z,84296.06
2023-02-16T10:08:27.937Z,84274.72
2023-02-16T10:11:42.126Z,84274.72
2023-02-16T10:14:49.929Z,84266.78
2023-02-16T10:18:02.577Z,84254.19
2023-02-16T10:21:15.228Z,84258.97
2023-02-16T10:24:18.498Z,84259.72
2023-02-16T10:27:21.973Z,84246.25
2023-02-16T10:30:25.051Z,84233.63
2023-02-16T10:33:53.701Z,84171.88
2023-02-16T10:37:14.844Z,84111.75
2023-02-16T10:40:23.633Z,84085.53
2023-02-16T10:43:35.600Z,84080.06
2023-02-16T10:46:48.030Z,84019.81
2023-02-16T10:49:52.283Z,84004.00
2023-02-16T10:53:00.627Z,83983.41
2023-02-16T10:56:34.322Z,83948.53
2023-02-16T10:59:42.815Z,83934.25
2023-02-16T11:02:48.444Z,83883.47
2023-02-16T11:05:53.389Z,83857.31
2023-02-16T11:09:00.427Z,83870.81
2023-02-16T11:12:28.492Z,83881.91
2023-02-16T11:15:40.095Z,83843.81
2023-02-16T11:18:49.911Z,83835.87
2023-02-16T11:22:02.503Z,83812.09
2023-02-16T11:25:34.205Z,83797.81
2023-02-16T11:28:42.973Z,83837.56
2023-02-16T11:31:45.800Z,83924.84
2023-02-16T11:34:53.775Z,83899.47
2023-02-16T11:37:56.418Z,83853.47
2023-02-16T11:41:02.503Z,83845.53
2023-02-16T11:44:05.532Z,83843.94
2023-02-16T11:47:25.573Z,83848.78
2023-02-16T11:50:32.874Z,83829.66
2023-02-16T11:53:42.629Z,83901.94
2023-02-16T11:57:02.058Z,83969.31
2023-02-16T12:00:16.564Z,83945.50
2023-02-16T12:04:00.663Z,83955.09
2023-02-16T12:07:23.358Z,83913.06
2023-02-16T12:10:34.877Z,83859.91
2023-02-16T12:13:55.319Z,83809.22
2023-02-16T12:17:24.045Z,83779.00
2023-02-16T12:20:54.316Z,83756.03
2023-02-16T12:24:32.500Z,83860.78
2023-02-16T12:27:47.959Z,83864.03
2023-02-16T12:31:23.386Z,83817.22
2023-02-16T12:34:45.272Z,83799.78
2023-02-16T12:38:01.758Z,83810.88
2023-02-16T12:41:16.598Z,83914.00
2023-02-16T12:44:36.759Z,83922.72
2023-02-16T12:47:46.709Z,83933.87
2023-02-16T12:50:51.805Z,83949.69
2023-02-16T12:54:10.080Z,83910.87
2023-02-16T12:57:20.679Z,83942.63
2023-02-16T13:00:35.209Z,83947.38
2023-02-16T13:04:05.031Z,83921.97
2023-02-16T13:07:17.969Z,83896.66
2023-02-16T13:10:54.934Z,83914.88
2023-02-16T13:14:02.974Z,83928.34
2023-02-16T13:17:18.788Z,83899.06
2023-02-16T13:20:23.158Z,83917.28
2023-02-16T13:23:35.043Z,83928.41
2023-02-16T13:26:55.076Z,83909.41
2023-02-16T13:30:17.060Z,83891.97
2023-02-16T13:33:55.533Z,83878.53
2023-02-16T13:37:18.408Z,83860.28
2023-02-16T13:40:48.846Z,83838.16
2023-02-16T13:43:57.101Z,83828.63
2023-02-16T13:46:59.830Z,83830.16
2023-02-16T13:50:09.583Z,83823.03
2023-02-16T13:53:19.616Z,83821.47
2023-02-16T13:56:38.208Z,83820.66
2023-02-16T13:59:40.620Z,83819.87
2023-02-16T14:02:54.904Z,83816.75
2023-02-16T14:06:32.809Z,83813.53
2023-02-16T14:09:38.580Z,83817.50
2023-02-16T14:12:41.936Z,83811.19
2023-02-16T14:15:52.465Z,83808.06
2023-02-16T14:19:00.967Z,83803.25
2023-02-16T14:22:11.780Z,83801.69
2023-02-16T14:25:23.792Z,83808.00
2023-02-16T14:28:32.551Z,83804.06
2023-02-16T14:31:54.285Z,83823.91
2023-02-16T14:35:14.010Z,83830.28
2023-02-16T14:38:24.910Z,83831.81
2023-02-16T14:41:37.161Z,83830.25
2023-02-16T14:44:55.836Z,83828.66
2023-02-16T14:48:21.599Z,83825.50
2023-02-16T14:51:39.614Z,83823.91
2023-02-16T14:55:07.210Z,83823.91
2023-02-16T14:58:13.105Z,83823.91
2023-02-16T15:01:18.991Z,83820.78
2023-02-16T15:04:33.390Z,83819.94
2023-02-16T15:07:41.336Z,83827.09
2023-02-16T15:10:47.218Z,83827.13
2023-02-16T15:13:53.512Z,83842.13
2023-02-16T15:16:58.284Z,83843.72
2023-02-16T15:20:10.977Z,83850.84
2023-02-16T15:23:19.204Z,83852.44
2023-02-16T15:26:28.610Z,83858.78
2023-02-16T15:29:34.066Z,83854.84
2023-02-16T15:32:39.311Z,83863.59
2023-02-16T15:35:47.033Z,83863.56
2023-02-16T15:38:52.616Z,83871.47
2023-02-16T15:42:09.716Z,83880.97
2023-02-16T15:45:38.972Z,83884.19
2023-02-16T15:48:42.604Z,83885.75
2023-02-16T15:51:45.157Z,83888.94
2023-02-16T15:54:50.347Z,83894.50
2023-02-16T15:57:54.008Z,83898.44
2023-02-16T16:00:56.950Z,83907.94
2023-02-16T16:04:08.218Z,83911.13
2023-02-16T16:07:17.520Z,83920.59
2023-02-16T16:10:28.718Z,83919.81
2023-02-16T16:13:32.472Z,83926.97
2023-02-16T16:16:36.161Z,83928.56
2023-02-16T16:19:39.134Z,83938.06
2023-02-16T16:22:43.707Z,83941.22
2023-02-16T16:25:48.441Z,83946.00
2023-02-16T16:28:51.945Z,83951.50
2023-02-16T16:31:54.477Z,83958.66
2023-02-16T16:34:57.608Z,83961.81
2023-02-16T16:38:00.891Z,83966.56
2023-02-16T16:41:05.145Z,83971.34
2023-02-16T16:44:12.493Z,83973.66
2023-02-16T16:47:37.853Z,83977.66
2023-02-16T16:50:40.717Z,83982.38
2023-02-16T16:53:57.493Z,83987.13
2023-02-16T16:57:00.058Z,83997.38
2023-02-16T17:00:03.643Z,83995.06
2023-02-16T17:03:08.792Z,83995.06
2023-02-16T17:06:12.006Z,83999.81
2023-02-16T17:09:15.961Z,83996.63
2023-02-16T17:12:21.519Z,83999.84
2023-02-16T17:15:44.688Z,84004.59
2023-02-16T17:18:47.492Z,84007.72
2023-02-16T17:21:50.059Z,84012.44
2023-02-16T17:24:52.871Z,84006.16
2023-02-16T17:27:55.225Z,84014.03
2023-02-16T17:30:58.191Z,84021.94
2023-02-16T17:34:00.848Z,84025.13
2023-02-16T17:37:07.614Z,84030.66
2023-02-16T17:40:15.288Z,84031.50
2023-02-16T17:43:19.696Z,84037.81
2023-02-16T17:46:23.093Z,84048.87
2023-02-16T17:49:26.081Z,84047.31
2023-02-16T17:52:28.494Z,84048.91
2023-02-16T17:55:31.228Z,84067.88
2023-02-16T17:58:33.594Z,84071.03
2023-02-16T18:01:37.704Z,84073.47
2023-02-16T18:04:43.284Z,84082.12
2023-02-16T18:07:45.847Z,84081.41
2023-02-16T18:10:51.737Z,84083.72
2023-02-16T18:13:54.093Z,84099.53
2023-02-16T18:16:59.905Z,84105.84
2023-02-16T18:20:04.411Z,84109.00
2023-02-16T18:23:08.317Z,84116.91
2023-02-16T18:26:15.753Z,84121.69
2023-02-16T18:29:19.215Z,84131.16
2023-02-16T18:32:21.609Z,84135.94
2023-02-16T18:35:24.413Z,84138.28
2023-02-16T18:38:28.408Z,84145.41
2023-02-16T18:41:32.670Z,84151.69
2023-02-16T18:44:35.207Z,84151.69
2023-02-16T18:47:38.078Z,84154.87
2023-02-16T18:50:40.694Z,84162.78
2023-02-16T18:53:44.086Z,84163.56
2023-02-16T18:56:47.736Z,84164.41
2023-02-16T18:59:50.856Z,84167.56
2023-02-16T19:02:55.388Z,84164.44
2023-02-16T19:05:58.263Z,84172.25
2023-02-16T19:09:01.497Z,84177.03
2023-02-16T19:12:04.457Z,84184.94
2023-02-16T19:15:08.260Z,84183.34
2023-02-16T19:18:11.045Z,84188.06
2023-02-16T19:21:14.764Z,84189.69
2023-02-16T19:24:17.618Z,84197.56
2023-02-16T19:27:20.014Z,84199.19
2023-02-16T19:30:24.345Z,84198.38
2023-02-16T19:33:26.817Z,84202.34
2023-02-16T19:36:32.080Z,84207.06
2023-02-16T19:39:35.239Z,84205.47
2023-02-16T19:42:39.102Z,84199.16
2023-02-16T19:45:42.768Z,84189.69
2023-02-16T19:48:48.679Z,84205.47
2023-02-16T19:51:51.566Z,84224.44
2023-02-16T19:54:54.906Z,84225.25
2023-02-16T19:57:57.354Z,84233.94
2023-02-16T20:01:10.306Z,84229.97
2023-02-16T20:04:13.167Z,84224.44
2023-02-16T20:07:15.598Z,84227.59
2023-02-16T20:10:18.348Z,84237.13
2023-02-16T20:13:21.538Z,84245.03
2023-02-16T20:16:24.937Z,84246.56
2023-02-16T20:19:27.671Z,84251.28
2023-02-16T20:22:30.517Z,84248.13
2023-02-16T20:25:33.118Z,84254.47
2023-02-16T20:28:36.419Z,84251.31
2023-02-16T20:31:40.650Z,84253.72
2023-02-16T20:34:43.486Z,84268.66
2023-02-16T20:37:46.015Z,84267.16
2023-02-16T20:40:48.856Z,84268.69
2023-02-16T20:43:51.379Z,84271.84
2023-02-16T20:46:54.149Z,84270.25
2023-02-16T20:49:56.706Z,84271.84
2023-02-16T20:53:00.613Z,84275.00
2023-02-16T20:56:08.681Z,84282.91
2023-02-16T20:59:12.253Z,84275.78
2023-02-16T21:02:14.873Z,84279.75
2023-02-16T21:05:18.542Z,84285.28
2023-02-16T21:08:21.413Z,84284.50
2023-02-16T21:11:25.668Z,84286.09
2023-02-16T21:14:28.205Z,84285.31
2023-02-16T21:17:31.126Z,84288.47
2023-02-16T21:20:33.782Z,84293.19
2023-02-16T21:23:36.678Z,84298.72
2023-02-16T21:26:39.240Z,84306.63
2023-02-16T21:29:42.058Z,84310.59
2023-02-16T21:32:44.503Z,84323.97
2023-02-16T21:35:47.388Z,84324.00
2023-02-16T21:38:51.205Z,84323.25
2023-02-16T21:41:53.993Z,84325.56
2023-02-16T21:45:12.563Z,84316.09
2023-02-16T21:48:33.799Z,84320.84
2023-02-16T21:51:38.676Z,84322.44
2023-02-16T21:54:59.967Z,84325.59
2023-02-16T21:58:06.396Z,84319.25
2023-02-16T22:01:09.638Z,84315.31
2023-02-16T22:04:14.981Z,84314.53
2023-02-16T22:07:17.512Z,84311.38
2023-02-16T22:10:20.307Z,84308.19
2023-02-16T22:13:23.030Z,84303.50
2023-02-16T22:16:28.094Z,84298.75
2023-02-16T22:19:30.607Z,84301.88
2023-02-16T22:22:33.453Z,84303.50
2023-02-16T22:25:40.116Z,84306.63
2023-02-16T22:28:42.812Z,84303.47
2023-02-16T22:31:49.375Z,84306.66
2023-02-16T22:34:53.854Z,84296.34
2023-02-16T22:37:56.442Z,84305.06
2023-02-16T22:40:59.235Z,84313.72
2023-02-16T22:44:01.732Z,84324.00
2023-02-16T22:47:04.771Z,84327.16
2023-02-16T22:50:07.689Z,84330.31
2023-02-16T22:53:10.416Z,84325.59
2023-02-16T22:56:15.788Z,84324.00
2023-02-16T22:59:22.418Z,84327.16
2023-02-16T23:02:24.834Z,84325.59
2023-02-16T23:05:30.192Z,84331.91
2023-02-16T23:08:32.524Z,84331.94
2023-02-16T23:11:36.446Z,84339.78
2023-02-16T23:14:39.097Z,84332.69
2023-02-16T23:17:41.750Z,84334.28
2023-02-16T23:20:44.114Z,84336.66
2023-02-16T23:23:48.059Z,84347.69
2023-02-16T23:26:51.197Z,84352.44
2023-02-16T23:29:53.975Z,84357.94
2023-02-16T23:32:56.541Z,84361.94
2023-02-16T23:35:59.433Z,84363.50
2023-02-16T23:39:04.264Z,84371.34
2023-02-16T23:42:06.995Z,84372.94
2023-02-16T23:45:09.817Z,84384.03
2023-02-16T23:48:12.456Z,84395.03
2023-02-16T23:51:14.938Z,84390.31
2023-02-16T23:54:17.709Z,84390.31
2023-02-16T23:57:20.068Z,84387.97
